Аэропорт: Ленкорань. Ленкорань

ICAO: UBBL

METAR:
2021-07-28 14:00:00
UBBL 281400Z 02007KT 9999 BKN041 25/17 Q1014 R33/CLRD// NOSIG RMK MT OP
METAR:
2021-07-28 11:06:00
TAF UBBL 281106Z 2812/2912 04010KT 9999 SCT040 BKN100 TX29/2812Z TN23/2901Z TEMPO 2812/2820 VRB18KT -SHRA FEW012 SCT040CB BKN040 PROB40 TEMPO 2812/2820 -TSRA SCT030CB